sensor_id;sensor_type;location;lat;lon;timestamp;P1;durP1;ratioP1;P2;durP2;ratioP2
11535;SDS011;5824;49.336;8.652;2023-04-15T00:02:20;6.47;;;3.10;;
11535;SDS011;5824;49.336;8.652;2023-04-15T00:04:46;5.20;;;3.20;;
11535;SDS011;5824;49.336;8.652;2023-04-15T00:07:12;9.90;;;4.60;;
11535;SDS011;5824;49.336;8.652;2023-04-15T00:09:39;7.10;;;3.93;;
11535;SDS011;5824;49.336;8.652;2023-04-15T00:12:05;12.53;;;5.03;;
11535;SDS011;5824;49.336;8.652;2023-04-15T00:14:32;8.40;;;5.00;;
11535;SDS011;5824;49.336;8.652;2023-04-15T00:16:59;7.90;;;4.17;;
11535;SDS011;5824;49.336;8.652;2023-04-15T00:19:25;8.03;;;4.43;;
11535;SDS011;5824;49.336;8.652;2023-04-15T00:21:50;7.53;;;4.43;;
11535;SDS011;5824;49.336;8.652;2023-04-15T00:24:16;7.23;;;3.77;;
11535;SDS011;5824;49.336;8.652;2023-04-15T00:26:41;8.93;;;3.80;;
11535;SDS011;5824;49.336;8.652;2023-04-15T00:29:07;8.03;;;3.33;;
11535;SDS011;5824;49.336;8.652;2023-04-15T00:31:32;7.37;;;3.90;;
11535;SDS011;5824;49.336;8.652;2023-04-15T00:33:58;7.63;;;4.30;;
11535;SDS011;5824;49.336;8.652;2023-04-15T00:36:24;5.00;;;3.50;;
11535;SDS011;5824;49.336;8.652;2023-04-15T00:38:50;7.47;;;3.20;;
11535;SDS011;5824;49.336;8.652;2023-04-15T00:41:15;7.63;;;3.87;;
11535;SDS011;5824;49.336;8.652;2023-04-15T00:43:43;8.60;;;4.00;;
11535;SDS011;5824;49.336;8.652;2023-04-15T00:46:08;7.13;;;4.40;;
11535;SDS011;5824;49.336;8.652;2023-04-15T00:48:38;5.40;;;3.73;;
11535;SDS011;5824;49.336;8.652;2023-04-15T00:51:04;8.87;;;3.70;;
11535;SDS011;5824;49.336;8.652;2023-04-15T00:53:31;9.47;;;4.00;;
11535;SDS011;5824;49.336;8.652;2023-04-15T00:55:57;5.50;;;2.97;;
11535;SDS011;5824;49.336;8.652;2023-04-15T00:58:22;5.43;;;3.30;;
11535;SDS011;5824;49.336;8.652;2023-04-15T01:00:48;8.13;;;3.40;;
11535;SDS011;5824;49.336;8.652;2023-04-15T01:03:18;10.47;;;3.70;;
11535;SDS011;5824;49.336;8.652;2023-04-15T01:05:44;6.43;;;3.20;;
11535;SDS011;5824;49.336;8.652;2023-04-15T01:08:10;7.10;;;3.37;;
11535;SDS011;5824;49.336;8.652;2023-04-15T01:10:36;10.60;;;3.77;;
11535;SDS011;5824;49.336;8.652;2023-04-15T01:13:02;8.37;;;3.40;;
11535;SDS011;5824;49.336;8.652;2023-04-15T01:15:28;5.10;;;3.00;;
11535;SDS011;5824;49.336;8.652;2023-04-15T01:17:53;9.17;;;3.10;;
11535;SDS011;5824;49.336;8.652;2023-04-15T01:20:19;6.80;;;3.30;;
11535;SDS011;5824;49.336;8.652;2023-04-15T01:22:46;5.20;;;3.30;;
11535;SDS011;5824;49.336;8.652;2023-04-15T01:25:14;6.40;;;2.90;;
11535;SDS011;5824;49.336;8.652;2023-04-15T01:27:42;6.27;;;3.30;;
11535;SDS011;5824;49.336;8.652;2023-04-15T01:30:08;5.07;;;3.37;;
11535;SDS011;5824;49.336;8.652;2023-04-15T01:32:34;6.20;;;3.60;;
11535;SDS011;5824;49.336;8.652;2023-04-15T01:35:00;8.93;;;4.10;;
11535;SDS011;5824;49.336;8.652;2023-04-15T01:37:26;7.83;;;4.40;;
11535;SDS011;5824;49.336;8.652;2023-04-15T01:39:52;9.10;;;4.00;;
11535;SDS011;5824;49.336;8.652;2023-04-15T01:42:18;6.90;;;3.60;;
11535;SDS011;5824;49.336;8.652;2023-04-15T01:44:45;7.60;;;4.13;;
11535;SDS011;5824;49.336;8.652;2023-04-15T01:47:11;7.10;;;3.97;;
11535;SDS011;5824;49.336;8.652;2023-04-15T01:49:36;8.57;;;4.00;;
11535;SDS011;5824;49.336;8.652;2023-04-15T01:52:02;5.93;;;4.50;;
11535;SDS011;5824;49.336;8.652;2023-04-15T01:54:27;6.23;;;4.00;;
11535;SDS011;5824;49.336;8.652;2023-04-15T01:56:53;12.13;;;4.90;;
11535;SDS011;5824;49.336;8.652;2023-04-15T01:59:18;8.70;;;5.10;;
11535;SDS011;5824;49.336;8.652;2023-04-15T02:01:44;9.93;;;5.03;;
11535;SDS011;5824;49.336;8.652;2023-04-15T02:04:10;7.73;;;4.50;;
11535;SDS011;5824;49.336;8.652;2023-04-15T02:06:41;7.17;;;4.83;;
11535;SDS011;5824;49.336;8.652;2023-04-15T02:09:07;6.20;;;4.50;;
11535;SDS011;5824;49.336;8.652;2023-04-15T02:11:33;5.70;;;4.07;;
11535;SDS011;5824;49.336;8.652;2023-04-15T02:14:01;6.13;;;4.70;;
11535;SDS011;5824;49.336;8.652;2023-04-15T02:16:28;7.57;;;4.47;;
11535;SDS011;5824;49.336;8.652;2023-04-15T02:18:53;6.57;;;4.70;;
11535;SDS011;5824;49.336;8.652;2023-04-15T02:21:19;9.63;;;4.87;;
11535;SDS011;5824;49.336;8.652;2023-04-15T02:23:44;11.83;;;5.67;;
11535;SDS011;5824;49.336;8.652;2023-04-15T02:26:12;7.77;;;4.60;;
11535;SDS011;5824;49.336;8.652;2023-04-15T02:28:38;8.00;;;5.10;;
11535;SDS011;5824;49.336;8.652;2023-04-15T02:31:06;8.33;;;5.37;;
11535;SDS011;5824;49.336;8.652;2023-04-15T02:33:32;6.93;;;5.00;;
11535;SDS011;5824;49.336;8.652;2023-04-15T02:35:57;9.03;;;5.60;;
11535;SDS011;5824;49.336;8.652;2023-04-15T02:38:23;8.57;;;5.20;;
11535;SDS011;5824;49.336;8.652;2023-04-15T02:40:49;12.77;;;5.53;;
11535;SDS011;5824;49.336;8.652;2023-04-15T02:43:15;8.77;;;4.60;;
11535;SDS011;5824;49.336;8.652;2023-04-15T02:45:44;7.40;;;5.07;;
11535;SDS011;5824;49.336;8.652;2023-04-15T02:48:11;7.50;;;4.70;;
11535;SDS011;5824;49.336;8.652;2023-04-15T02:50:36;7.40;;;4.33;;
11535;SDS011;5824;49.336;8.652;2023-04-15T02:53:05;8.37;;;4.63;;
11535;SDS011;5824;49.336;8.652;2023-04-15T02:55:31;6.60;;;4.53;;
11535;SDS011;5824;49.336;8.652;2023-04-15T02:57:56;11.37;;;4.93;;
11535;SDS011;5824;49.336;8.652;2023-04-15T03:00:25;9.27;;;5.30;;
11535;SDS011;5824;49.336;8.652;2023-04-15T03:02:51;8.03;;;5.03;;
11535;SDS011;5824;49.336;8.652;2023-04-15T03:05:21;7.93;;;5.23;;
11535;SDS011;5824;49.336;8.652;2023-04-15T03:07:50;6.73;;;4.53;;
11535;SDS011;5824;49.336;8.652;2023-04-15T03:10:16;7.37;;;5.03;;
11535;SDS011;5824;49.336;8.652;2023-04-15T03:12:42;8.10;;;4.40;;
11535;SDS011;5824;49.336;8.652;2023-04-15T03:15:07;5.83;;;4.00;;
11535;SDS011;5824;49.336;8.652;2023-04-15T03:17:34;6.83;;;4.40;;
11535;SDS011;5824;49.336;8.652;2023-04-15T03:20:00;7.07;;;3.87;;
11535;SDS011;5824;49.336;8.652;2023-04-15T03:22:27;4.50;;;3.60;;
11535;SDS011;5824;49.336;8.652;2023-04-15T03:24:52;6.60;;;4.30;;
11535;SDS011;5824;49.336;8.652;2023-04-15T03:27:18;4.87;;;3.60;;
11535;SDS011;5824;49.336;8.652;2023-04-15T03:29:43;8.63;;;3.83;;
11535;SDS011;5824;49.336;8.652;2023-04-15T03:32:09;6.60;;;3.50;;
11535;SDS011;5824;49.336;8.652;2023-04-15T03:34:36;4.80;;;3.30;;
11535;SDS011;5824;49.336;8.652;2023-04-15T03:37:01;5.57;;;3.60;;
11535;SDS011;5824;49.336;8.652;2023-04-15T03:39:27;4.83;;;3.50;;
11535;SDS011;5824;49.336;8.652;2023-04-15T03:41:52;4.30;;;3.30;;
11535;SDS011;5824;49.336;8.652;2023-04-15T03:44:18;6.33;;;3.70;;
11535;SDS011;5824;49.336;8.652;2023-04-15T03:46:43;5.17;;;3.87;;
11535;SDS011;5824;49.336;8.652;2023-04-15T03:49:09;4.93;;;3.33;;
11535;SDS011;5824;49.336;8.652;2023-04-15T03:51:35;5.57;;;3.47;;
11535;SDS011;5824;49.336;8.652;2023-04-15T03:54:00;6.70;;;3.50;;
11535;SDS011;5824;49.336;8.652;2023-04-15T03:56:26;6.70;;;3.80;;
11535;SDS011;5824;49.336;8.652;2023-04-15T03:58:52;6.93;;;4.00;;
11535;SDS011;5824;49.336;8.652;2023-04-15T04:01:17;6.20;;;4.07;;
11535;SDS011;5824;49.336;8.652;2023-04-15T04:03:43;8.17;;;4.33;;
11535;SDS011;5824;49.336;8.652;2023-04-15T04:06:08;6.40;;;3.77;;
11535;SDS011;5824;49.336;8.652;2023-04-15T04:08:36;7.40;;;4.30;;
11535;SDS011;5824;49.336;8.652;2023-04-15T04:11:02;6.07;;;4.17;;
11535;SDS011;5824;49.336;8.652;2023-04-15T04:13:27;7.27;;;4.50;;
11535;SDS011;5824;49.336;8.652;2023-04-15T04:15:53;7.23;;;4.57;;
11535;SDS011;5824;49.336;8.652;2023-04-15T04:18:18;6.40;;;3.97;;
11535;SDS011;5824;49.336;8.652;2023-04-15T04:20:44;7.33;;;3.80;;
11535;SDS011;5824;49.336;8.652;2023-04-15T04:23:10;5.60;;;3.80;;
11535;SDS011;5824;49.336;8.652;2023-04-15T04:25:35;4.17;;;3.13;;
11535;SDS011;5824;49.336;8.652;2023-04-15T04:28:01;5.70;;;3.70;;
11535;SDS011;5824;49.336;8.652;2023-04-15T04:30:27;7.07;;;3.60;;
11535;SDS011;5824;49.336;8.652;2023-04-15T04:32:53;5.87;;;3.80;;
11535;SDS011;5824;49.336;8.652;2023-04-15T04:35:18;6.00;;;3.83;;
11535;SDS011;5824;49.336;8.652;2023-04-15T04:37:44;6.63;;;3.60;;
11535;SDS011;5824;49.336;8.652;2023-04-15T04:40:10;7.40;;;4.30;;
11535;SDS011;5824;49.336;8.652;2023-04-15T04:42:36;7.27;;;4.00;;
11535;SDS011;5824;49.336;8.652;2023-04-15T04:45:01;3.97;;;3.20;;
11535;SDS011;5824;49.336;8.652;2023-04-15T04:47:27;7.37;;;4.03;;
11535;SDS011;5824;49.336;8.652;2023-04-15T04:49:54;9.03;;;4.10;;
11535;SDS011;5824;49.336;8.652;2023-04-15T04:52:19;4.73;;;3.47;;
11535;SDS011;5824;49.336;8.652;2023-04-15T04:54:45;6.23;;;4.30;;
11535;SDS011;5824;49.336;8.652;2023-04-15T04:57:11;5.50;;;3.83;;
11535;SDS011;5824;49.336;8.652;2023-04-15T04:59:37;8.53;;;3.90;;
11535;SDS011;5824;49.336;8.652;2023-04-15T05:02:03;15.97;;;5.63;;
11535;SDS011;5824;49.336;8.652;2023-04-15T05:04:29;7.80;;;5.40;;
11535;SDS011;5824;49.336;8.652;2023-04-15T05:06:55;8.10;;;4.83;;
11535;SDS011;5824;49.336;8.652;2023-04-15T05:09:21;7.13;;;5.37;;
11535;SDS011;5824;49.336;8.652;2023-04-15T05:11:47;7.73;;;4.77;;
11535;SDS011;5824;49.336;8.652;2023-04-15T05:14:12;5.90;;;4.73;;
11535;SDS011;5824;49.336;8.652;2023-04-15T05:16:38;15.17;;;4.50;;
11535;SDS011;5824;49.336;8.652;2023-04-15T05:19:03;8.70;;;5.00;;
11535;SDS011;5824;49.336;8.652;2023-04-15T05:21:29;7.27;;;4.63;;
11535;SDS011;5824;49.336;8.652;2023-04-15T05:23:55;5.93;;;4.70;;
11535;SDS011;5824;49.336;8.652;2023-04-15T05:26:21;7.83;;;4.97;;
11535;SDS011;5824;49.336;8.652;2023-04-15T05:28:48;6.50;;;4.90;;
11535;SDS011;5824;49.336;8.652;2023-04-15T05:31:14;10.50;;;5.87;;
11535;SDS011;5824;49.336;8.652;2023-04-15T05:33:40;12.33;;;6.77;;
11535;SDS011;5824;49.336;8.652;2023-04-15T05:36:05;10.20;;;7.00;;
11535;SDS011;5824;49.336;8.652;2023-04-15T05:38:31;11.33;;;6.43;;
11535;SDS011;5824;49.336;8.652;2023-04-15T05:40:57;10.53;;;4.70;;
11535;SDS011;5824;49.336;8.652;2023-04-15T05:43:22;6.73;;;5.07;;
11535;SDS011;5824;49.336;8.652;2023-04-15T05:45:48;5.93;;;4.40;;
11535;SDS011;5824;49.336;8.652;2023-04-15T05:48:13;7.40;;;4.53;;
11535;SDS011;5824;49.336;8.652;2023-04-15T05:50:40;5.33;;;4.40;;
11535;SDS011;5824;49.336;8.652;2023-04-15T05:53:06;7.70;;;4.70;;
11535;SDS011;5824;49.336;8.652;2023-04-15T05:55:32;6.30;;;4.80;;
11535;SDS011;5824;49.336;8.652;2023-04-15T05:57:58;8.97;;;4.83;;
11535;SDS011;5824;49.336;8.652;2023-04-15T06:00:23;7.90;;;4.57;;
11535;SDS011;5824;49.336;8.652;2023-04-15T06:02:49;6.53;;;4.73;;
11535;SDS011;5824;49.336;8.652;2023-04-15T06:05:14;6.70;;;4.43;;
11535;SDS011;5824;49.336;8.652;2023-04-15T06:07:40;6.40;;;4.80;;
11535;SDS011;5824;49.336;8.652;2023-04-15T06:10:07;7.73;;;4.90;;
11535;SDS011;5824;49.336;8.652;2023-04-15T06:12:33;11.27;;;5.63;;
11535;SDS011;5824;49.336;8.652;2023-04-15T06:14:59;9.43;;;4.90;;
11535;SDS011;5824;49.336;8.652;2023-04-15T06:17:24;7.20;;;4.97;;
11535;SDS011;5824;49.336;8.652;2023-04-15T06:19:50;6.23;;;4.30;;
11535;SDS011;5824;49.336;8.652;2023-04-15T06:22:19;6.87;;;5.00;;
11535;SDS011;5824;49.336;8.652;2023-04-15T06:24:46;8.40;;;5.37;;
11535;SDS011;5824;49.336;8.652;2023-04-15T06:27:13;8.23;;;5.57;;
11535;SDS011;5824;49.336;8.652;2023-04-15T06:29:38;9.87;;;5.47;;
11535;SDS011;5824;49.336;8.652;2023-04-15T06:32:04;9.67;;;5.47;;
11535;SDS011;5824;49.336;8.652;2023-04-15T06:34:30;10.50;;;6.53;;
11535;SDS011;5824;49.336;8.652;2023-04-15T06:36:55;10.50;;;6.63;;
11535;SDS011;5824;49.336;8.652;2023-04-15T06:39:21;12.33;;;6.40;;
11535;SDS011;5824;49.336;8.652;2023-04-15T06:41:46;9.70;;;6.50;;
11535;SDS011;5824;49.336;8.652;2023-04-15T06:44:12;8.40;;;6.10;;
11535;SDS011;5824;49.336;8.652;2023-04-15T06:46:38;10.20;;;6.30;;
11535;SDS011;5824;49.336;8.652;2023-04-15T06:49:04;14.33;;;6.13;;
11535;SDS011;5824;49.336;8.652;2023-04-15T06:51:29;8.07;;;5.80;;
11535;SDS011;5824;49.336;8.652;2023-04-15T06:53:55;10.70;;;6.10;;
11535;SDS011;5824;49.336;8.652;2023-04-15T06:56:21;7.30;;;5.10;;
11535;SDS011;5824;49.336;8.652;2023-04-15T06:58:47;9.60;;;5.13;;
11535;SDS011;5824;49.336;8.652;2023-04-15T07:01:12;7.53;;;4.70;;
11535;SDS011;5824;49.336;8.652;2023-04-15T07:03:38;7.63;;;5.40;;
11535;SDS011;5824;49.336;8.652;2023-04-15T07:06:03;8.10;;;5.07;;
11535;SDS011;5824;49.336;8.652;2023-04-15T07:08:31;7.93;;;4.70;;
11535;SDS011;5824;49.336;8.652;2023-04-15T07:10:57;9.07;;;5.07;;
11535;SDS011;5824;49.336;8.652;2023-04-15T07:13:24;6.93;;;4.80;;
11535;SDS011;5824;49.336;8.652;2023-04-15T07:15:49;10.43;;;5.23;;
11535;SDS011;5824;49.336;8.652;2023-04-15T07:18:15;11.30;;;6.80;;
11535;SDS011;5824;49.336;8.652;2023-04-15T07:20:41;7.80;;;5.00;;
11535;SDS011;5824;49.336;8.652;2023-04-15T07:23:07;9.13;;;4.90;;
11535;SDS011;5824;49.336;8.652;2023-04-15T07:25:33;7.27;;;4.73;;
11535;SDS011;5824;49.336;8.652;2023-04-15T07:27:58;9.53;;;5.00;;
11535;SDS011;5824;49.336;8.652;2023-04-15T07:30:24;11.33;;;5.57;;
11535;SDS011;5824;49.336;8.652;2023-04-15T07:32:49;7.13;;;4.97;;
11535;SDS011;5824;49.336;8.652;2023-04-15T07:35:15;8.63;;;5.47;;
11535;SDS011;5824;49.336;8.652;2023-04-15T07:37:40;6.53;;;5.10;;
11535;SDS011;5824;49.336;8.652;2023-04-15T07:40:07;7.37;;;5.00;;
11535;SDS011;5824;49.336;8.652;2023-04-15T07:42:34;8.10;;;5.83;;
11535;SDS011;5824;49.336;8.652;2023-04-15T07:44:59;7.83;;;4.80;;
11535;SDS011;5824;49.336;8.652;2023-04-15T07:47:25;7.27;;;5.30;;
11535;SDS011;5824;49.336;8.652;2023-04-15T07:49:51;10.40;;;6.20;;
11535;SDS011;5824;49.336;8.652;2023-04-15T07:52:16;10.17;;;6.50;;
11535;SDS011;5824;49.336;8.652;2023-04-15T07:54:42;9.40;;;5.57;;
11535;SDS011;5824;49.336;8.652;2023-04-15T07:57:08;10.20;;;5.97;;
11535;SDS011;5824;49.336;8.652;2023-04-15T07:59:34;10.13;;;5.33;;
11535;SDS011;5824;49.336;8.652;2023-04-15T08:02:01;9.60;;;5.40;;
11535;SDS011;5824;49.336;8.652;2023-04-15T08:04:27;9.07;;;5.70;;
11535;SDS011;5824;49.336;8.652;2023-04-15T08:06:52;8.57;;;5.20;;
11535;SDS011;5824;49.336;8.652;2023-04-15T08:09:18;6.60;;;5.13;;
11535;SDS011;5824;49.336;8.652;2023-04-15T08:11:45;11.10;;;5.60;;
11535;SDS011;5824;49.336;8.652;2023-04-15T08:14:12;7.67;;;6.03;;
11535;SDS011;5824;49.336;8.652;2023-04-15T08:16:38;11.57;;;6.40;;
11535;SDS011;5824;49.336;8.652;2023-04-15T08:19:03;8.53;;;6.57;;
11535;SDS011;5824;49.336;8.652;2023-04-15T08:21:29;9.20;;;5.67;;
11535;SDS011;5824;49.336;8.652;2023-04-15T08:23:55;11.20;;;6.47;;
11535;SDS011;5824;49.336;8.652;2023-04-15T08:26:21;8.97;;;6.50;;
11535;SDS011;5824;49.336;8.652;2023-04-15T08:28:47;11.87;;;6.67;;
11535;SDS011;5824;49.336;8.652;2023-04-15T08:31:14;9.47;;;6.60;;
11535;SDS011;5824;49.336;8.652;2023-04-15T08:33:40;9.63;;;7.40;;
11535;SDS011;5824;49.336;8.652;2023-04-15T08:36:06;10.00;;;7.30;;
11535;SDS011;5824;49.336;8.652;2023-04-15T08:38:32;12.27;;;6.87;;
11535;SDS011;5824;49.336;8.652;2023-04-15T08:40:59;9.40;;;6.63;;
11535;SDS011;5824;49.336;8.652;2023-04-15T08:43:27;11.03;;;6.10;;
11535;SDS011;5824;49.336;8.652;2023-04-15T08:45:59;9.63;;;5.27;;
11535;SDS011;5824;49.336;8.652;2023-04-15T08:48:28;8.90;;;5.90;;
11535;SDS011;5824;49.336;8.652;2023-04-15T08:50:57;6.57;;;5.30;;
11535;SDS011;5824;49.336;8.652;2023-04-15T08:53:23;8.40;;;6.10;;
11535;SDS011;5824;49.336;8.652;2023-04-15T08:55:50;9.40;;;6.10;;
11535;SDS011;5824;49.336;8.652;2023-04-15T08:58:18;14.40;;;6.20;;
11535;SDS011;5824;49.336;8.652;2023-04-15T09:00:43;7.43;;;5.90;;
11535;SDS011;5824;49.336;8.652;2023-04-15T09:10:54;13.30;;;6.73;;
11535;SDS011;5824;49.336;8.652;2023-04-15T09:13:19;9.80;;;5.77;;
11535;SDS011;5824;49.336;8.652;2023-04-15T09:39:03;9.70;;;6.50;;
11535;SDS011;5824;49.336;8.652;2023-04-15T09:46:58;15.00;;;6.53;;
11535;SDS011;5824;49.336;8.652;2023-04-15T09:51:59;8.47;;;5.40;;
11535;SDS011;5824;49.336;8.652;2023-04-15T09:54:31;8.07;;;5.97;;
11535;SDS011;5824;49.336;8.652;2023-04-15T10:15:14;21.33;;;7.90;;
11535;SDS011;5824;49.336;8.652;2023-04-15T10:17:42;9.13;;;5.20;;
11535;SDS011;5824;49.336;8.652;2023-04-15T10:20:08;6.67;;;4.57;;
11535;SDS011;5824;49.336;8.652;2023-04-15T10:25:12;15.53;;;6.50;;
11535;SDS011;5824;49.336;8.652;2023-04-15T10:35:27;10.23;;;5.47;;
11535;SDS011;5824;49.336;8.652;2023-04-15T10:37:54;7.90;;;5.70;;
11535;SDS011;5824;49.336;8.652;2023-04-15T10:40:24;9.13;;;5.80;;
11535;SDS011;5824;49.336;8.652;2023-04-15T10:42:55;7.40;;;5.30;;
11535;SDS011;5824;49.336;8.652;2023-04-15T10:45:35;11.23;;;6.53;;
11535;SDS011;5824;49.336;8.652;2023-04-15T10:48:02;8.83;;;5.87;;
11535;SDS011;5824;49.336;8.652;2023-04-15T10:50:30;7.53;;;6.00;;
11535;SDS011;5824;49.336;8.652;2023-04-15T10:52:56;7.43;;;6.10;;
11535;SDS011;5824;49.336;8.652;2023-04-15T10:55:24;8.17;;;6.30;;
11535;SDS011;5824;49.336;8.652;2023-04-15T10:57:51;14.23;;;6.90;;
11535;SDS011;5824;49.336;8.652;2023-04-15T11:00:18;9.60;;;6.30;;
11535;SDS011;5824;49.336;8.652;2023-04-15T11:08:14;7.10;;;5.37;;
11535;SDS011;5824;49.336;8.652;2023-04-15T11:15:45;8.50;;;4.63;;
11535;SDS011;5824;49.336;8.652;2023-04-15T11:18:24;5.37;;;3.97;;
11535;SDS011;5824;49.336;8.652;2023-04-15T11:20:52;4.93;;;3.47;;
11535;SDS011;5824;49.336;8.652;2023-04-15T11:23:40;5.90;;;3.67;;
11535;SDS011;5824;49.336;8.652;2023-04-15T11:26:10;4.40;;;3.40;;
11535;SDS011;5824;49.336;8.652;2023-04-15T11:28:37;8.47;;;3.90;;
11535;SDS011;5824;49.336;8.652;2023-04-15T11:31:06;5.80;;;3.30;;
11535;SDS011;5824;49.336;8.652;2023-04-15T11:33:34;7.30;;;3.57;;
11535;SDS011;5824;49.336;8.652;2023-04-15T11:36:00;9.30;;;3.63;;
11535;SDS011;5824;49.336;8.652;2023-04-15T11:38:25;4.53;;;3.00;;
11535;SDS011;5824;49.336;8.652;2023-04-15T11:40:51;5.03;;;3.53;;
11535;SDS011;5824;49.336;8.652;2023-04-15T11:43:18;5.60;;;3.40;;
11535;SDS011;5824;49.336;8.652;2023-04-15T11:48:21;4.70;;;3.20;;
11535;SDS011;5824;49.336;8.652;2023-04-15T11:50:53;8.50;;;2.90;;
11535;SDS011;5824;49.336;8.652;2023-04-15T11:53:18;4.23;;;3.13;;
11535;SDS011;5824;49.336;8.652;2023-04-15T11:55:48;6.13;;;3.50;;
11535;SDS011;5824;49.336;8.652;2023-04-15T12:00:51;5.07;;;3.23;;
11535;SDS011;5824;49.336;8.652;2023-04-15T12:03:25;4.93;;;3.07;;
11535;SDS011;5824;49.336;8.652;2023-04-15T12:08:49;6.37;;;3.23;;
11535;SDS011;5824;49.336;8.652;2023-04-15T12:16:34;4.80;;;2.80;;
11535;SDS011;5824;49.336;8.652;2023-04-15T12:19:03;4.50;;;2.83;;
11535;SDS011;5824;49.336;8.652;2023-04-15T12:21:35;8.03;;;3.33;;
11535;SDS011;5824;49.336;8.652;2023-04-15T12:24:02;4.17;;;3.10;;
11535;SDS011;5824;49.336;8.652;2023-04-15T12:26:32;4.73;;;2.90;;
11535;SDS011;5824;49.336;8.652;2023-04-15T12:29:01;3.57;;;2.73;;
11535;SDS011;5824;49.336;8.652;2023-04-15T12:31:28;4.20;;;2.77;;
11535;SDS011;5824;49.336;8.652;2023-04-15T12:33:54;5.80;;;3.20;;
11535;SDS011;5824;49.336;8.652;2023-04-15T12:36:20;4.53;;;3.00;;
11535;SDS011;5824;49.336;8.652;2023-04-15T12:38:46;5.07;;;3.10;;
11535;SDS011;5824;49.336;8.652;2023-04-15T12:41:12;8.40;;;3.00;;
11535;SDS011;5824;49.336;8.652;2023-04-15T12:43:37;4.00;;;2.93;;
11535;SDS011;5824;49.336;8.652;2023-04-15T12:46:03;3.93;;;2.87;;
11535;SDS011;5824;49.336;8.652;2023-04-15T12:48:29;5.67;;;3.17;;
11535;SDS011;5824;49.336;8.652;2023-04-15T12:50:54;7.83;;;3.00;;
11535;SDS011;5824;49.336;8.652;2023-04-15T12:53:20;4.50;;;3.20;;
11535;SDS011;5824;49.336;8.652;2023-04-15T12:55:46;7.43;;;3.50;;
11535;SDS011;5824;49.336;8.652;2023-04-15T12:58:13;4.40;;;2.90;;
11535;SDS011;5824;49.336;8.652;2023-04-15T13:00:38;4.27;;;3.17;;
11535;SDS011;5824;49.336;8.652;2023-04-15T13:03:04;4.67;;;3.17;;
11535;SDS011;5824;49.336;8.652;2023-04-15T13:05:29;6.00;;;3.30;;
11535;SDS011;5824;49.336;8.652;2023-04-15T13:07:55;3.47;;;3.13;;
11535;SDS011;5824;49.336;8.652;2023-04-15T13:10:21;4.00;;;3.10;;
11535;SDS011;5824;49.336;8.652;2023-04-15T13:12:47;5.73;;;3.33;;
11535;SDS011;5824;49.336;8.652;2023-04-15T13:15:17;6.20;;;3.47;;
11535;SDS011;5824;49.336;8.652;2023-04-15T13:17:46;4.50;;;3.20;;
11535;SDS011;5824;49.336;8.652;2023-04-15T13:20:12;4.97;;;3.10;;
11535;SDS011;5824;49.336;8.652;2023-04-15T13:22:38;4.63;;;2.80;;
11535;SDS011;5824;49.336;8.652;2023-04-15T13:25:04;3.50;;;2.90;;
11535;SDS011;5824;49.336;8.652;2023-04-15T13:27:31;4.73;;;2.70;;
11535;SDS011;5824;49.336;8.652;2023-04-15T13:29:57;2.93;;;2.20;;
11535;SDS011;5824;49.336;8.652;2023-04-15T13:32:23;3.00;;;2.27;;
11535;SDS011;5824;49.336;8.652;2023-04-15T13:34:49;6.23;;;2.43;;
11535;SDS011;5824;49.336;8.652;2023-04-15T13:37:15;2.43;;;1.70;;
11535;SDS011;5824;49.336;8.652;2023-04-15T13:39:40;1.97;;;1.37;;
11535;SDS011;5824;49.336;8.652;2023-04-15T13:42:06;2.57;;;1.50;;
11535;SDS011;5824;49.336;8.652;2023-04-15T13:44:31;2.20;;;1.30;;
11535;SDS011;5824;49.336;8.652;2023-04-15T13:46:57;2.70;;;1.50;;
11535;SDS011;5824;49.336;8.652;2023-04-15T13:49:22;101.43;;;9.10;;
11535;SDS011;5824;49.336;8.652;2023-04-15T13:51:48;3.23;;;1.60;;
11535;SDS011;5824;49.336;8.652;2023-04-15T13:54:14;5.17;;;1.80;;
11535;SDS011;5824;49.336;8.652;2023-04-15T13:56:40;2.27;;;1.80;;
11535;SDS011;5824;49.336;8.652;2023-04-15T13:59:06;3.80;;;2.00;;
11535;SDS011;5824;49.336;8.652;2023-04-15T14:01:33;2.57;;;1.80;;
11535;SDS011;5824;49.336;8.652;2023-04-15T14:03:59;2.90;;;2.00;;
11535;SDS011;5824;49.336;8.652;2023-04-15T14:06:24;3.13;;;2.30;;
11535;SDS011;5824;49.336;8.652;2023-04-15T14:08:51;6.77;;;2.27;;
11535;SDS011;5824;49.336;8.652;2023-04-15T14:11:16;5.13;;;2.03;;
11535;SDS011;5824;49.336;8.652;2023-04-15T14:13:42;2.10;;;1.70;;
11535;SDS011;5824;49.336;8.652;2023-04-15T14:16:08;2.70;;;2.03;;
11535;SDS011;5824;49.336;8.652;2023-04-15T14:18:34;4.20;;;1.70;;
11535;SDS011;5824;49.336;8.652;2023-04-15T14:20:59;7.70;;;2.30;;
11535;SDS011;5824;49.336;8.652;2023-04-15T14:23:24;2.77;;;1.90;;
11535;SDS011;5824;49.336;8.652;2023-04-15T14:25:50;5.30;;;2.10;;
11535;SDS011;5824;49.336;8.652;2023-04-15T14:28:17;2.40;;;1.80;;
11535;SDS011;5824;49.336;8.652;2023-04-15T14:30:42;2.70;;;2.00;;
11535;SDS011;5824;49.336;8.652;2023-04-15T14:33:08;2.10;;;1.60;;
11535;SDS011;5824;49.336;8.652;2023-04-15T14:35:33;2.70;;;1.80;;
11535;SDS011;5824;49.336;8.652;2023-04-15T14:37:59;3.13;;;2.00;;
11535;SDS011;5824;49.336;8.652;2023-04-15T14:40:25;3.20;;;2.20;;
11535;SDS011;5824;49.336;8.652;2023-04-15T14:42:50;2.93;;;2.30;;
11535;SDS011;5824;49.336;8.652;2023-04-15T14:45:16;2.33;;;2.10;;
11535;SDS011;5824;49.336;8.652;2023-04-15T14:47:41;2.90;;;1.77;;
11535;SDS011;5824;49.336;8.652;2023-04-15T14:50:07;2.70;;;2.03;;
11535;SDS011;5824;49.336;8.652;2023-04-15T14:52:33;3.07;;;2.27;;
11535;SDS011;5824;49.336;8.652;2023-04-15T14:55:06;2.93;;;2.40;;
11535;SDS011;5824;49.336;8.652;2023-04-15T14:57:34;4.90;;;2.40;;
11535;SDS011;5824;49.336;8.652;2023-04-15T15:00:01;2.50;;;2.10;;
11535;SDS011;5824;49.336;8.652;2023-04-15T15:02:27;3.90;;;2.00;;
11535;SDS011;5824;49.336;8.652;2023-04-15T15:04:53;2.97;;;2.37;;
11535;SDS011;5824;49.336;8.652;2023-04-15T15:07:18;3.73;;;2.77;;
11535;SDS011;5824;49.336;8.652;2023-04-15T15:09:44;2.80;;;2.57;;
11535;SDS011;5824;49.336;8.652;2023-04-15T15:12:10;2.53;;;2.27;;
11535;SDS011;5824;49.336;8.652;2023-04-15T15:14:35;2.37;;;2.17;;
11535;SDS011;5824;49.336;8.652;2023-04-15T15:17:01;2.40;;;2.10;;
11535;SDS011;5824;49.336;8.652;2023-04-15T15:19:26;2.87;;;2.57;;
11535;SDS011;5824;49.336;8.652;2023-04-15T15:21:52;3.00;;;2.20;;
11535;SDS011;5824;49.336;8.652;2023-04-15T15:24:17;2.43;;;2.23;;
11535;SDS011;5824;49.336;8.652;2023-04-15T15:26:43;2.87;;;2.47;;
11535;SDS011;5824;49.336;8.652;2023-04-15T15:29:08;2.80;;;2.03;;
11535;SDS011;5824;49.336;8.652;2023-04-15T15:31:34;3.07;;;1.97;;
11535;SDS011;5824;49.336;8.652;2023-04-15T15:33:59;2.47;;;2.00;;
11535;SDS011;5824;49.336;8.652;2023-04-15T15:36:25;2.67;;;1.90;;
11535;SDS011;5824;49.336;8.652;2023-04-15T15:38:51;2.73;;;1.70;;
11535;SDS011;5824;49.336;8.652;2023-04-15T15:41:17;2.23;;;2.03;;
11535;SDS011;5824;49.336;8.652;2023-04-15T15:43:42;2.60;;;2.33;;
11535;SDS011;5824;49.336;8.652;2023-04-15T15:46:08;2.50;;;2.30;;
11535;SDS011;5824;49.336;8.652;2023-04-15T15:48:33;2.00;;;1.80;;
11535;SDS011;5824;49.336;8.652;2023-04-15T15:50:59;3.70;;;2.43;;
11535;SDS011;5824;49.336;8.652;2023-04-15T15:53:25;2.37;;;2.17;;
11535;SDS011;5824;49.336;8.652;2023-04-15T15:55:51;4.73;;;2.37;;
11535;SDS011;5824;49.336;8.652;2023-04-15T15:58:16;2.53;;;2.33;;
11535;SDS011;5824;49.336;8.652;2023-04-15T16:00:42;3.20;;;2.10;;
11535;SDS011;5824;49.336;8.652;2023-04-15T16:03:07;2.20;;;2.00;;
11535;SDS011;5824;49.336;8.652;2023-04-15T16:05:33;4.93;;;2.43;;
11535;SDS011;5824;49.336;8.652;2023-04-15T16:07:59;2.10;;;1.90;;
11535;SDS011;5824;49.336;8.652;2023-04-15T16:10:25;2.70;;;2.20;;
11535;SDS011;5824;49.336;8.652;2023-04-15T16:12:51;2.40;;;2.20;;
11535;SDS011;5824;49.336;8.652;2023-04-15T16:15:17;2.50;;;2.30;;
11535;SDS011;5824;49.336;8.652;2023-04-15T16:17:42;3.47;;;2.30;;
11535;SDS011;5824;49.336;8.652;2023-04-15T16:20:08;2.63;;;2.40;;
11535;SDS011;5824;49.336;8.652;2023-04-15T16:22:33;2.50;;;2.30;;
11535;SDS011;5824;49.336;8.652;2023-04-15T16:24:59;2.60;;;2.40;;
11535;SDS011;5824;49.336;8.652;2023-04-15T16:27:25;2.70;;;2.40;;